Historyczne dane pomiarowe

Dodano dane terminowe – wersja testowa.

Dane z okresu 1951-2019

Wersja bazy: 1.34 [2019-03-16, lista zmian], aktualizacja planowana na 2019-04-15

Dane meteo z obszaru Polski uzyskane na podstawie danych udostępnionych przez Instytut Meteorologii i Gospodarki Wodnej – Państwowy Instytut Badawczy.

 

Wybierz Datę:    

       

TemperaturaWilgotnośćWiatrCiśnienieOpadyŚniegCzas trwania zjawisk
 Stacja t tx tn tng RH VA  wxwx mslp ppp RRR   cm mm wxwxwxwxwxwxwx
1987-08-14 14.8 20.5 6.2--- 4.7 2.7---- 4.3------------
1987-08-13 11.7 16.4 7.1--- 5.3 2.7---- 0.0------------
1987-08-12 12.9 18.0 9.2--- 6.0 8.0---- 0.2------------
1987-08-11 12.8 18.0 10.7--- 4.3 5.3---- 2.6------------
1987-08-10 14.3 18.9 11.7--- 6.3 5.7---- 0.2------------
1987-08-09 16.8 23.1 8.1--- 1.7 1.7---- 6.3------------
1987-08-08 14.3 21.0 10.3--- 4.0 4.0---- 0.0------------
1987-08-07 12.9 19.0 9.1--- 6.3 7.3---- 0.0------------
1987-08-06 11.5 17.4 4.1--- 2.0 3.3---- 3.6------------
1987-08-05 12.4 19.0 4.8--- 1.7 3.0---- 0.0------------
1987-08-04 12.9 18.6 7.0--- 3.0 4.3---- 2.9------------
1987-08-03 13.9 18.9 9.8--- 3.3 3.3---- 0.0------------
1987-08-02 15.2 19.7 12.8--- 4.0 4.3---- 0.9------------
1987-08-01 15.9 21.5 7.4--- 6.7 4.7---- 2.6------------
1987-07-31 14.9 19.2 12.2--- 7.3 4.3---- 1.0------------
1987-07-30 16.2 23.2 9.2--- 2.0 1.3---- 0.0------------
1987-07-29 13.7 18.9 10.1--- 4.0 3.7---- 1.5------------
1987-07-28 13.7 20.0 9.2--- 6.3 5.7---- 1.2------------
1987-07-27 12.0 17.3 7.5--- 2.0 7.0---- 0.6------------
1987-07-26 13.6 20.7 10.9--- 8.0 2.3---- 6.0------------
1987-07-25 18.2 23.0 12.2--- 6.0 2.3---- 0.2------------
1987-07-24 20.0 26.6 12.8--- 3.7 2.0---- 0.0------------
1987-07-23 22.5 28.6 15.1--- 0.3 2.7---- 0.0------------
1987-07-22 20.9 27.6 13.2--- 4.0 3.0---- 0.0------------
1987-07-21 18.5 24.8 10.6--- 3.0 3.0---- 0.0------------
1987-07-20 19.2 28.3 13.6--- 2.3 3.3---- 0.0------------
1987-07-19 19.3 25.2 13.3--- 1.3 6.0---- 0.0------------
1987-07-18 19.5 24.0 15.4--- 3.7 3.0---- 0.0------------
1987-07-17 19.3 25.6 13.3--- 6.0 4.0---- 0.4------------
1987-07-16 17.8 25.0 8.7--- 3.7 1.7---- 0.0------------
1987-07-15 15.6 22.5 6.8--- 0.0 1.0---- 0.0------------
1987-07-14 14.2 18.9 9.2--- 6.0 6.7---- 0.0------------
1987-07-13 16.6 20.8 12.1--- 3.7 3.7---- 0.0------------
1987-07-12 18.1 24.9 14.0--- 5.3 4.7---- 6.1------------
1987-07-11 14.5 20.2 6.2--- 7.0 3.0---- 9.4------------
1987-07-10 13.7 18.9 9.8--- 5.3 9.0---- 0.1------------
1987-07-09 17.8 23.4 14.7--- 8.0 4.0---- 4.0------------
1987-07-08 21.2 29.9 11.7--- 0.7 3.3---- 0.0------------
1987-07-07 19.2 27.0 8.1--- 0.0 3.0---- 0.0------------
1987-07-06 16.5 23.0 5.8--- 1.3 2.0---- 0.0------------
1987-07-05 15.5 21.6 9.2--- 4.0 5.3---- 1.3------------
1987-07-04 16.4 22.3 8.1--- 2.0 3.0---- 0.0------------
1987-07-03 18.0 22.4 12.7--- 1.0 3.3---- 0.0------------
1987-07-02 19.6 26.9 16.2--- 5.3 4.7---- 0.0------------
1987-07-01 25.0 31.5 17.5--- 0.0 4.3---- 0.0------------
1987-06-30 22.7 27.8 17.2--- 3.3 2.7---- 0.0------------
1987-06-29 16.8 23.6 6.5--- 3.0 2.0---- 0.7------------
1987-06-28 16.4 22.0 10.3--- 3.0 5.0---- 0.0------------
1987-06-27 16.4 20.7 13.2--- 5.7 2.0---- 0.7------------
1987-06-26 14.9 21.3 6.7--- 2.3 5.3---- 0.0------------
1987-06-25 12.8 17.2 9.9--- 5.3 5.0---- 1.0------------
1987-06-24 15.9 20.9 11.2--- 1.0 3.0---- 12.0------------
1987-06-23 16.0 24.4 8.6--- 5.0 2.7---- 0.0------------
1987-06-22 19.0 24.7 13.1--- 1.3 1.3---- 0.0------------
1987-06-21 18.4 24.8 9.8--- 4.0 1.7---- 0.0------------
1987-06-20 14.8 21.7 4.8--- 1.3 4.7---- 0.0------------
1987-06-19 11.6 16.8 6.5--- 3.0 3.3---- 0.0------------
1987-06-18 11.7 17.8 3.8--- 4.3 1.0---- 0.1------------
1987-06-17 11.8 16.1 9.6--- 4.7 3.7---- 0.4------------
1987-06-16 15.8 25.4 11.0--- 6.0 7.7---- 0.2------------
444.2 ms

 

Źródłem pochodzenia danych jest Instytut Meteorologii i Gospodarki Wodnej – Państwowy Instytut Badawczy. Dane Instytutu Meteorologii i Gospodarki Wodnej – Państwowego Instytutu Badawczego zostały przetworzone.

Dane źródłowe można odnaleźć na stronie https://dane.imgw.pl